Time;durP1;ratioP1;P1;durP2;ratioP2;P2;SDS_P1;SDS_P2;PMS_P1;PMS_P2;Temp;Humidity;BMP_temperature;BMP_pressure;BME280_temperature;BME280_humidity;BME280_pressure;Samples;Min_cycle;Max_cycle;Signal;HPM_P1;HPM_P2
2023/01/06 00:00:24;;;;;;;58.67;27.10;;;10.20;99.90;;;;;;5012043;28;20042;-41
2023/01/06 00:02:50;;;;;;;53.05;25.63;;;10.20;99.90;;;;;;5012709;28;20048;-41
2023/01/06 00:05:16;;;;;;;54.42;26.55;;;10.20;99.90;;;;;;5012189;28;20042;-42
2023/01/06 00:07:43;;;;;;;54.53;27.23;;;10.20;99.90;;;;;;4998720;28;20042;-41
2023/01/06 00:10:10;;;;;;;55.55;28.00;;;10.20;99.90;;;;;;5003837;28;20050;-41
2023/01/06 00:12:36;;;;;;;51.97;28.08;;;10.20;99.90;;;;;;5010143;28;20115;-42
2023/01/06 00:15:02;;;;;;;54.15;26.63;;;10.20;99.90;;;;;;5004399;28;20073;-41
2023/01/06 00:17:28;;;;;;;48.03;25.23;;;10.20;99.90;;;;;;5024289;28;20038;-41
2023/01/06 00:19:53;;;;;;;49.00;26.38;;;10.20;99.90;;;;;;5011400;28;20037;-42
2023/01/06 00:22:19;;;;;;;53.20;25.08;;;10.20;99.90;;;;;;5009197;28;20071;-41
2023/01/06 00:24:45;;;;;;;44.20;24.63;;;10.20;99.90;;;;;;5004405;28;20041;-41
2023/01/06 00:27:10;;;;;;;46.20;24.98;;;10.20;99.90;;;;;;5005974;28;20025;-42
2023/01/06 00:29:36;;;;;;;43.22;24.35;;;10.30;99.90;;;;;;5009990;28;20041;-41
2023/01/06 00:32:02;;;;;;;45.03;23.27;;;10.30;99.90;;;;;;5014722;28;20100;-41
2023/01/06 00:34:28;;;;;;;46.53;22.50;;;10.20;99.90;;;;;;5004704;28;20097;-41
2023/01/06 00:36:55;;;;;;;40.33;22.58;;;10.30;99.90;;;;;;5011235;28;20038;-41
2023/01/06 00:39:21;;;;;;;40.83;21.17;;;10.30;99.90;;;;;;5008974;28;20045;-41
2023/01/06 00:42:02;;;;;;;38.30;20.70;;;10.30;99.90;;;;;;5015216;28;20030;-42
2023/01/06 00:44:38;;;;;;;37.53;20.60;;;10.30;99.90;;;;;;5006328;28;20038;-41
2023/01/06 00:47:06;;;;;;;36.53;19.92;;;10.30;99.90;;;;;;4999535;28;20026;-42
2023/01/06 00:49:32;;;;;;;33.00;19.77;;;10.30;99.90;;;;;;5003805;28;20037;-40
2023/01/06 00:51:58;;;;;;;29.98;17.90;;;10.30;99.90;;;;;;5006766;28;20408;-41
2023/01/06 00:54:24;;;;;;;30.02;17.45;;;10.30;99.90;;;;;;5013553;28;20042;-41
2023/01/06 00:56:52;;;;;;;27.30;15.98;;;10.30;99.90;;;;;;5024192;28;20076;-41
2023/01/06 00:59:21;;;;;;;27.40;16.40;;;10.30;99.90;;;;;;5004949;28;20033;-41
2023/01/06 01:01:49;;;;;;;26.38;15.52;;;10.30;99.90;;;;;;5014744;28;20038;-42
2023/01/06 01:04:15;;;;;;;23.33;13.98;;;10.30;99.90;;;;;;5018550;28;20037;-41
2023/01/06 01:06:43;;;;;;;19.95;13.45;;;10.30;99.90;;;;;;5015651;28;20038;-41
2023/01/06 01:09:12;;;;;;;23.05;13.00;;;10.30;99.90;;;;;;5007078;28;20042;-42
2023/01/06 01:14:22;;;;;;;22.23;13.18;;;10.40;99.90;;;;;;5011002;28;20201;-41
2023/01/06 01:16:48;;;;;;;21.90;12.32;;;10.30;99.90;;;;;;4994318;28;20189;-42
2023/01/06 01:19:14;;;;;;;22.05;12.15;;;10.30;99.90;;;;;;5006661;28;20066;-41
2023/01/06 01:21:41;;;;;;;21.30;11.70;;;10.30;99.90;;;;;;5008980;28;20038;-41
2023/01/06 01:24:07;;;;;;;16.15;11.60;;;10.30;99.90;;;;;;5006218;28;20038;-41
2023/01/06 01:26:33;;;;;;;16.08;11.15;;;10.30;99.90;;;;;;5002030;28;20104;-42
2023/01/06 01:28:59;;;;;;;18.50;11.82;;;10.30;99.90;;;;;;5009392;28;20121;-43
2023/01/06 01:31:25;;;;;;;15.43;10.82;;;10.30;99.90;;;;;;5006564;28;20038;-42
2023/01/06 01:33:51;;;;;;;17.65;12.00;;;10.30;99.90;;;;;;4995848;28;20045;-42
2023/01/06 01:36:18;;;;;;;18.13;11.35;;;10.30;99.90;;;;;;5003009;28;20384;-43
2023/01/06 01:38:44;;;;;;;16.73;11.05;;;10.30;99.90;;;;;;5007977;28;20045;-42
2023/01/06 01:41:20;;;;;;;18.67;11.43;;;10.30;99.90;;;;;;5005192;28;20053;-42
2023/01/06 01:43:50;;;;;;;18.25;11.68;;;10.30;99.90;;;;;;5008155;28;20125;-42
2023/01/06 01:46:22;;;;;;;19.67;12.38;;;10.30;99.90;;;;;;5009696;28;20034;-42
2023/01/06 01:48:48;;;;;;;14.90;10.32;;;10.30;99.90;;;;;;5009491;28;20321;-41
2023/01/06 01:51:18;;;;;;;20.65;12.27;;;10.30;99.90;;;;;;5009519;28;20049;-41
2023/01/06 01:53:48;;;;;;;15.25;11.18;;;10.30;99.90;;;;;;5004095;28;20038;-41
2023/01/06 01:56:20;;;;;;;15.73;9.82;;;10.30;99.90;;;;;;5008440;28;20057;-42
2023/01/06 01:58:53;;;;;;;18.20;11.30;;;10.30;99.90;;;;;;5004631;28;20504;-41
2023/01/06 02:01:19;;;;;;;16.70;11.25;;;10.30;99.90;;;;;;5007168;28;20038;-42
2023/01/06 02:03:44;;;;;;;18.92;10.48;;;10.30;99.90;;;;;;5008956;28;20041;-42
2023/01/06 02:06:15;;;;;;;18.35;10.80;;;10.30;99.90;;;;;;5007637;28;20064;-42
2023/01/06 02:08:59;;;;;;;15.80;10.48;;;10.30;99.90;;;;;;5000620;28;20045;-42
2023/01/06 02:11:26;;;;;;;;;;;10.30;99.90;;;;;;5000688;28;20038;-42
2023/01/06 02:14:02;;;;;;;11.38;9.20;;;10.30;99.90;;;;;;5027082;28;19925;-42
2023/01/06 02:16:52;;;;;;;15.27;9.00;;;10.30;99.90;;;;;;5013595;28;20092;-41
2023/01/06 02:19:24;;;;;;;12.95;9.50;;;10.30;99.90;;;;;;5032603;28;20083;-42
2023/01/06 02:22:05;;;;;;;12.48;9.75;;;10.30;99.90;;;;;;5030827;28;20121;-42
2023/01/06 02:25:08;;;;;;;12.48;8.75;;;10.30;99.90;;;;;;5011503;28;20077;-41
2023/01/06 02:28:05;;;;;;;14.38;9.20;;;10.30;99.90;;;;;;5030581;28;20041;-41
2023/01/06 02:30:52;;;;;;;15.48;9.65;;;10.30;99.90;;;;;;5014562;28;20045;-41
2023/01/06 02:33:26;;;;;;;16.20;9.50;;;10.20;99.90;;;;;;5025235;28;20041;-41
2023/01/06 02:36:00;;;;;;;13.82;9.35;;;10.20;99.90;;;;;;5013273;28;20042;-41
2023/01/06 02:39:04;;;;;;;14.55;8.40;;;10.30;99.90;;;;;;5008169;28;20549;-41
2023/01/06 02:41:45;;;;;;;14.27;8.80;;;10.30;99.90;;;;;;4937797;28;20043;-43
2023/01/06 02:44:31;;;;;;;12.52;8.45;;;10.20;99.90;;;;;;4932392;29;20031;-43
2023/01/06 02:47:06;;;;;;;13.88;8.88;;;10.30;99.90;;;;;;4985631;28;20052;-42
2023/01/06 02:49:45;;;;;;;10.50;8.88;;;10.30;99.90;;;;;;5008075;28;20133;-41
2023/01/06 02:52:27;;;;;;;10.10;8.77;;;10.30;99.90;;;;;;5011667;28;20092;-41
2023/01/06 02:54:53;;;;;;;10.57;7.93;;;10.30;99.90;;;;;;5008993;28;20045;-42
2023/01/06 02:57:43;;;;;;;10.73;8.77;;;10.30;99.90;;;;;;5006289;28;20046;-42
2023/01/06 03:00:20;;;;;;;10.38;8.77;;;10.30;99.90;;;;;;5024006;28;20090;-41
2023/01/06 03:02:52;;;;;;;12.05;8.73;;;10.20;99.90;;;;;;5029622;28;20038;-42
2023/01/06 03:05:21;;;;;;;11.38;9.52;;;10.30;99.90;;;;;;5007032;28;20038;-41
2023/01/06 03:07:48;;;;;;;12.23;8.95;;;10.30;99.90;;;;;;5029423;28;20040;-42
2023/01/06 03:10:17;;;;;;;13.13;9.32;;;10.20;99.90;;;;;;5018771;28;20306;-41
2023/01/06 03:13:00;;;;;;;12.75;10.07;;;10.20;99.90;;;;;;5008332;28;20120;-41
2023/01/06 03:15:26;;;;;;;14.30;10.65;;;10.20;99.90;;;;;;5011456;28;20588;-42
2023/01/06 03:17:52;;;;;;;13.07;9.73;;;10.20;99.90;;;;;;5004762;28;20050;-42
2023/01/06 03:20:18;;;;;;;12.63;10.23;;;10.20;99.90;;;;;;5010140;28;20040;-40
2023/01/06 03:22:44;;;;;;;14.50;10.48;;;10.20;99.90;;;;;;5004180;28;20042;-40
2023/01/06 03:25:11;;;;;;;16.08;10.88;;;10.20;99.90;;;;;;5010260;28;20036;-41
2023/01/06 03:27:36;;;;;;;14.20;10.90;;;10.20;99.90;;;;;;4993969;28;20092;-42
2023/01/06 03:30:09;;;;;;;17.50;12.13;;;10.20;99.90;;;;;;5016333;28;20037;-43
2023/01/06 03:32:49;;;;;;;17.23;12.10;;;10.20;99.90;;;;;;5004480;28;20042;-42
2023/01/06 03:35:23;;;;;;;17.95;13.18;;;10.20;99.90;;;;;;5019097;28;20034;-41
2023/01/06 03:37:58;;;;;;;19.50;14.15;;;10.20;99.90;;;;;;5006596;28;20049;-41
2023/01/06 03:40:59;;;;;;;17.85;15.20;;;10.20;99.90;;;;;;5028252;28;20733;-41
2023/01/06 03:43:47;;;;;;;24.20;15.48;;;10.10;99.90;;;;;;4971704;28;20147;-40
2023/01/06 03:46:33;;;;;;;24.23;16.20;;;10.20;99.90;;;;;;5015295;28;20097;-42
2023/01/06 03:49:17;;;;;;;21.13;16.92;;;10.10;99.90;;;;;;5024685;28;20404;-41
2023/01/06 03:52:04;;;;;;;18.98;16.75;;;10.20;99.90;;;;;;5000066;28;20066;-41
2023/01/06 03:54:44;;;;;;;20.00;15.85;;;10.10;99.90;;;;;;5004845;28;20495;-41
2023/01/06 03:57:42;;;;;;;21.08;16.02;;;10.10;99.90;;;;;;5012227;28;20042;-41
2023/01/06 04:00:22;;;;;;;17.92;14.82;;;10.10;99.90;;;;;;5010167;28;20407;-41
2023/01/06 04:02:47;;;;;;;18.73;15.10;;;10.10;99.90;;;;;;5012036;28;20041;-41
2023/01/06 04:05:19;;;;;;;22.15;13.98;;;10.10;99.90;;;;;;5003713;28;20042;-41
2023/01/06 04:07:46;;;;;;;16.38;12.32;;;10.10;99.90;;;;;;5009112;28;20049;-42
2023/01/06 04:10:14;;;;;;;18.65;13.48;;;10.10;99.90;;;;;;5007972;28;20133;-41
2023/01/06 04:12:39;;;;;;;17.17;13.57;;;10.10;99.90;;;;;;5006065;28;20511;-41
2023/01/06 04:15:09;;;;;;;14.48;12.23;;;10.10;99.90;;;;;;5017544;28;20126;-42
2023/01/06 04:17:35;;;;;;;14.85;11.88;;;10.10;99.90;;;;;;5007439;28;20037;-41
2023/01/06 04:20:01;;;;;;;15.07;12.32;;;10.20;99.90;;;;;;5005869;28;20412;-41
2023/01/06 04:22:27;;;;;;;15.93;12.43;;;10.20;99.90;;;;;;5023856;28;20038;-41
2023/01/06 04:24:52;;;;;;;14.15;11.98;;;10.10;99.90;;;;;;4998784;28;20051;-42
2023/01/06 04:27:18;;;;;;;13.90;11.73;;;10.10;99.90;;;;;;5020419;28;20118;-41
2023/01/06 04:29:44;;;;;;;12.38;10.43;;;10.10;99.90;;;;;;5007984;28;20025;-42
2023/01/06 04:32:09;;;;;;;11.88;10.63;;;10.10;99.90;;;;;;5011250;28;20120;-40
2023/01/06 04:34:35;;;;;;;10.82;9.88;;;10.20;99.90;;;;;;5006431;28;20122;-40
2023/01/06 04:37:03;;;;;;;13.05;10.23;;;10.20;99.90;;;;;;5007996;28;20077;-41
2023/01/06 04:39:29;;;;;;;10.75;9.65;;;10.20;99.90;;;;;;5002321;28;20119;-41
2023/01/06 04:41:55;;;;;;;12.80;9.63;;;10.20;99.90;;;;;;5027976;28;20038;-41
2023/01/06 04:44:20;;;;;;;11.80;9.80;;;10.10;99.90;;;;;;5009311;28;20419;-41
2023/01/06 04:46:46;;;;;;;10.48;9.18;;;10.20;99.90;;;;;;5005421;28;20484;-42
2023/01/06 04:49:12;;;;;;;10.07;8.90;;;10.20;99.90;;;;;;5010450;28;20092;-41
2023/01/06 04:51:37;;;;;;;12.15;9.15;;;10.20;99.90;;;;;;5009974;28;20036;-42
2023/01/06 04:54:03;;;;;;;12.50;7.95;;;10.20;99.90;;;;;;5004059;28;20365;-41
2023/01/06 04:56:29;;;;;;;9.18;8.18;;;10.20;99.90;;;;;;5017825;28;20044;-40
2023/01/06 04:58:56;;;;;;;8.80;7.93;;;10.20;99.90;;;;;;5011476;28;20087;-41
2023/01/06 05:01:22;;;;;;;8.48;7.07;;;10.10;99.90;;;;;;5002400;28;20070;-41
2023/01/06 05:03:48;;;;;;;7.93;7.13;;;10.20;99.90;;;;;;5004441;28;20034;-42
2023/01/06 05:06:15;;;;;;;7.68;6.70;;;10.20;99.90;;;;;;5008104;28;20372;-42
2023/01/06 05:08:42;;;;;;;6.65;5.95;;;10.20;99.90;;;;;;5009655;28;20572;-42
2023/01/06 05:11:10;;;;;;;6.90;6.03;;;10.20;99.90;;;;;;5011303;28;20107;-41
2023/01/06 05:13:37;;;;;;;6.72;6.13;;;10.20;99.90;;;;;;5011414;28;20042;-41
2023/01/06 05:16:08;;;;;;;7.13;5.43;;;10.20;99.90;;;;;;5003128;28;20037;-41
2023/01/06 05:18:34;;;;;;;6.55;5.65;;;10.20;99.90;;;;;;5011107;28;20052;-42
2023/01/06 05:20:59;;;;;;;7.65;5.95;;;10.20;99.90;;;;;;5001425;28;20392;-41
2023/01/06 05:23:25;;;;;;;5.85;5.30;;;10.20;99.90;;;;;;5012127;28;20034;-41
2023/01/06 05:25:51;;;;;;;5.57;4.40;;;10.20;99.90;;;;;;5007243;28;20038;-42
2023/01/06 05:28:18;;;;;;;8.40;5.03;;;10.20;99.90;;;;;;5016382;28;20116;-41
2023/01/06 05:30:43;;;;;;;6.30;5.18;;;10.20;99.90;;;;;;4997420;28;20365;-41
2023/01/06 05:33:09;;;;;;;9.55;5.05;;;10.20;99.90;;;;;;5003766;28;20515;-42
2023/01/06 05:35:35;;;;;;;9.07;4.95;;;10.30;99.90;;;;;;5002887;28;20515;-42
2023/01/06 05:38:01;;;;;;;5.30;4.32;;;10.30;99.90;;;;;;5003881;28;20061;-41
2023/01/06 05:40:27;;;;;;;6.45;5.70;;;10.30;99.90;;;;;;5003419;28;20037;-41
2023/01/06 05:42:54;;;;;;;8.50;5.38;;;10.30;99.90;;;;;;5003665;28;20112;-42
2023/01/06 05:45:20;;;;;;;7.32;6.30;;;10.30;99.90;;;;;;5010492;28;20141;-41
2023/01/06 05:47:46;;;;;;;11.40;6.60;;;10.30;99.90;;;;;;5001451;28;20045;-41
2023/01/06 05:50:12;;;;;;;6.78;5.60;;;10.30;99.90;;;;;;5004997;28;20038;-41
2023/01/06 05:52:38;;;;;;;6.40;5.45;;;10.30;99.90;;;;;;5009025;28;20056;-42
2023/01/06 05:55:04;;;;;;;10.43;7.88;;;10.30;99.90;;;;;;5003085;28;20045;-42
2023/01/06 05:57:32;;;;;;;6.57;5.00;;;10.30;99.90;;;;;;5006483;28;20507;-41
2023/01/06 05:59:58;;;;;;;8.60;6.70;;;10.30;99.90;;;;;;5010062;28;20429;-41
2023/01/06 06:02:24;;;;;;;7.63;6.82;;;10.30;99.90;;;;;;5006509;28;20482;-41
2023/01/06 06:04:50;;;;;;;5.80;5.20;;;10.30;99.90;;;;;;5010416;28;20034;-43
2023/01/06 06:07:16;;;;;;;6.80;4.68;;;10.30;99.90;;;;;;5014530;28;20498;-40
2023/01/06 06:09:42;;;;;;;5.47;4.53;;;10.30;99.90;;;;;;5012318;28;20120;-41
2023/01/06 06:12:08;;;;;;;5.72;5.13;;;10.30;99.90;;;;;;5008232;28;20623;-41
2023/01/06 06:14:33;;;;;;;5.43;4.88;;;10.30;99.90;;;;;;5015518;28;20033;-42
2023/01/06 06:16:59;;;;;;;7.50;4.55;;;10.30;99.90;;;;;;5007699;28;20120;-41
2023/01/06 06:19:25;;;;;;;5.95;4.65;;;10.30;99.90;;;;;;5010146;28;20073;-41
2023/01/06 06:21:52;;;;;;;7.70;4.45;;;10.30;99.90;;;;;;4999430;28;20046;-41
2023/01/06 06:24:18;;;;;;;5.13;4.63;;;10.30;99.90;;;;;;5001080;28;20054;-42
2023/01/06 06:26:43;;;;;;;6.72;4.75;;;10.30;99.90;;;;;;5022400;28;20030;-41
2023/01/06 06:29:10;;;;;;;5.18;4.63;;;10.20;99.90;;;;;;5001708;28;20042;-41
2023/01/06 06:31:35;;;;;;;5.47;4.22;;;10.20;99.90;;;;;;5006967;28;20122;-42
2023/01/06 06:34:02;;;;;;;5.28;4.50;;;10.20;99.90;;;;;;5009714;28;20458;-43
2023/01/06 06:36:29;;;;;;;5.40;4.32;;;10.20;99.90;;;;;;5006193;28;20065;-42
2023/01/06 06:38:55;;;;;;;6.07;4.38;;;10.20;99.90;;;;;;5000239;28;20037;-42
2023/01/06 06:41:22;;;;;;;5.07;4.55;;;10.10;99.90;;;;;;4999738;28;20488;-41
2023/01/06 06:43:49;;;;;;;6.18;4.82;;;10.10;99.90;;;;;;5002735;28;20038;-42
2023/01/06 06:46:15;;;;;;;7.03;4.90;;;10.10;99.90;;;;;;5009636;28;20039;-41
2023/01/06 06:48:41;;;;;;;8.07;4.80;;;10.10;99.90;;;;;;5014754;28;20496;-40
2023/01/06 06:51:09;;;;;;;7.47;4.82;;;10.00;99.90;;;;;;4998633;28;20035;-41
2023/01/06 06:53:35;;;;;;;7.30;5.53;;;10.00;99.90;;;;;;5007894;28;20368;-41
2023/01/06 06:56:03;;;;;;;10.02;5.82;;;10.00;99.90;;;;;;5010355;28;20042;-41
2023/01/06 06:58:29;;;;;;;7.97;6.00;;;10.00;99.90;;;;;;5008806;28;20053;-41
2023/01/06 07:00:55;;;;;;;12.20;5.97;;;9.90;99.90;;;;;;5022667;28;20038;-42
2023/01/06 07:03:21;;;;;;;8.13;6.65;;;9.90;99.90;;;;;;5001120;28;20420;-41
2023/01/06 07:05:49;;;;;;;8.38;6.07;;;9.90;99.90;;;;;;5010437;28;20038;-42
2023/01/06 07:08:15;;;;;;;9.60;6.18;;;9.90;99.90;;;;;;5007506;28;20045;-41
2023/01/06 07:10:41;;;;;;;7.40;6.40;;;9.80;99.90;;;;;;5008116;28;20566;-41
2023/01/06 07:13:07;;;;;;;7.25;6.32;;;9.80;99.90;;;;;;5006124;28;20089;-41
2023/01/06 07:15:33;;;;;;;7.88;6.55;;;9.80;99.90;;;;;;5018974;28;20031;-41
2023/01/06 07:18:04;;;;;;;7.80;6.15;;;9.80;99.90;;;;;;5009131;28;20099;-44
2023/01/06 07:20:30;;;;;;;8.30;6.72;;;9.80;99.90;;;;;;5019006;28;20145;-41
2023/01/06 07:22:56;;;;;;;9.95;7.78;;;9.80;99.90;;;;;;5021415;28;20038;-42
2023/01/06 07:25:22;;;;;;;8.50;7.18;;;9.80;99.90;;;;;;5004304;28;20037;-41
2023/01/06 07:27:56;;;;;;;9.15;7.30;;;9.80;99.90;;;;;;5004243;28;20052;-41
2023/01/06 07:30:23;;;;;;;8.68;7.00;;;9.80;99.90;;;;;;5005679;28;20054;-42
2023/01/06 07:32:49;;;;;;;7.78;6.70;;;9.80;99.90;;;;;;5027601;28;20053;-41
2023/01/06 07:35:17;;;;;;;10.02;7.55;;;9.80;99.90;;;;;;5008471;28;20046;-40
2023/01/06 07:37:43;;;;;;;10.40;7.75;;;9.80;99.90;;;;;;5008599;28;20058;-42
2023/01/06 07:40:09;;;;;;;11.65;7.38;;;9.80;99.90;;;;;;5017514;28;20724;-41
2023/01/06 07:42:38;;;;;;;9.00;7.30;;;9.80;99.90;;;;;;5020083;28;20065;-41
2023/01/06 07:45:04;;;;;;;10.23;7.60;;;9.90;99.90;;;;;;5008728;28;20167;-41
2023/01/06 07:47:30;;;;;;;10.15;7.38;;;9.90;99.90;;;;;;5025292;28;20037;-41
2023/01/06 07:49:55;;;;;;;10.35;8.00;;;9.90;99.90;;;;;;5001183;28;20043;-42
2023/01/06 07:52:21;;;;;;;9.95;7.97;;;9.90;99.90;;;;;;4996740;28;20053;-41
2023/01/06 07:54:47;;;;;;;10.70;7.88;;;9.90;99.90;;;;;;5013747;28;20042;-42
2023/01/06 07:57:13;;;;;;;11.90;8.32;;;9.90;99.90;;;;;;5013466;28;20522;-42
2023/01/06 07:59:38;;;;;;;10.35;8.55;;;9.90;99.90;;;;;;5005099;28;20107;-43
2023/01/06 08:02:13;;;;;;;11.25;9.00;;;9.90;99.90;;;;;;5019277;28;20038;-38
2023/01/06 08:04:42;;;;;;;10.82;8.82;;;9.90;99.90;;;;;;5016513;28;20049;-39
2023/01/06 08:07:08;;;;;;;11.68;8.70;;;9.90;99.90;;;;;;5011821;28;21422;-38
2023/01/06 08:09:33;;;;;;;10.35;8.88;;;9.90;99.90;;;;;;5011108;28;20042;-38
2023/01/06 08:11:59;;;;;;;10.65;8.77;;;9.90;99.90;;;;;;5001827;28;20166;-39
2023/01/06 08:14:25;;;;;;;9.48;7.50;;;9.90;99.90;;;;;;4995253;28;20486;-38
2023/01/06 08:16:51;;;;;;;8.63;7.78;;;9.90;99.90;;;;;;5017150;28;20046;-38
2023/01/06 08:19:17;;;;;;;7.70;6.65;;;9.90;99.90;;;;;;5008153;28;20042;-38
2023/01/06 08:21:42;;;;;;;7.18;6.47;;;9.90;99.90;;;;;;5025013;28;20511;-38
2023/01/06 08:24:08;;;;;;;6.53;5.90;;;10.00;99.90;;;;;;5015674;28;20583;-38
2023/01/06 08:26:34;;;;;;;6.10;5.13;;;10.00;99.90;;;;;;5019288;28;20032;-38
2023/01/06 08:29:00;;;;;;;6.85;5.72;;;10.00;99.90;;;;;;5004270;28;20502;-39
2023/01/06 08:31:25;;;;;;;4.60;4.20;;;10.00;99.90;;;;;;5013984;28;20033;-38
2023/01/06 08:33:52;;;;;;;5.03;4.28;;;10.00;99.90;;;;;;5013224;28;20072;-38
2023/01/06 08:36:20;;;;;;;5.57;2.92;;;10.00;99.90;;;;;;5009336;28;20036;-38
2023/01/06 08:38:46;;;;;;;6.10;2.25;;;10.00;99.90;;;;;;5002149;28;20073;-38
2023/01/06 08:41:12;;;;;;;4.80;2.10;;;9.90;99.90;;;;;;5010957;28;20476;-38
2023/01/06 08:43:39;;;;;;;3.08;2.00;;;9.80;99.90;;;;;;5007657;28;20022;-38
2023/01/06 08:46:07;;;;;;;4.60;2.40;;;9.80;99.90;;;;;;5009396;28;20073;-38
2023/01/06 08:48:34;;;;;;;5.13;1.85;;;9.70;99.90;;;;;;5017077;28;20045;-38
2023/01/06 08:51:18;;;;;;;5.70;2.42;;;9.70;99.90;;;;;;5022112;28;20065;-38
2023/01/06 08:53:43;;;;;;;;;;;9.60;99.90;;;;;;5006135;28;20052;-38
2023/01/06 08:56:17;;;;;;;3.30;2.00;;;9.60;99.90;;;;;;5001755;28;20233;-38
2023/01/06 08:58:42;;;;;;;14.10;7.07;;;9.60;99.90;;;;;;5004489;28;20052;-38
2023/01/06 09:01:17;;;;;;;12.77;6.57;;;9.50;99.90;;;;;;5007248;28;20361;-38
2023/01/06 09:03:43;;;;;;;11.57;4.50;;;9.40;99.90;;;;;;5019421;28;20038;-38
2023/01/06 09:06:08;;;;;;;11.82;4.65;;;9.40;99.90;;;;;;5006596;28;20045;-38
2023/01/06 09:08:34;;;;;;;9.13;2.33;;;9.40;99.90;;;;;;5007478;28;20072;-38
2023/01/06 09:11:10;;;;;;;22.52;10.13;;;9.30;99.90;;;;;;5009667;28;20030;-38
2023/01/06 09:13:37;;;;;;;12.77;3.85;;;9.30;99.90;;;;;;5009925;28;20620;-38
2023/01/06 09:16:07;;;;;;;8.88;3.63;;;9.30;99.90;;;;;;5010266;28;20033;-38
2023/01/06 09:18:33;;;;;;;17.73;6.72;;;9.30;99.90;;;;;;5007645;28;20042;-38
2023/01/06 09:20:59;;;;;;;9.55;3.10;;;9.30;99.90;;;;;;5010061;28;20041;-38
2023/01/06 09:23:25;;;;;;;8.15;2.97;;;9.30;99.90;;;;;;5002037;28;20030;-38
2023/01/06 09:25:51;;;;;;;5.40;2.63;;;9.40;99.90;;;;;;5006693;28;20443;-38
2023/01/06 09:28:17;;;;;;;9.60;3.60;;;9.60;99.90;;;;;;5006950;28;20034;-38
2023/01/06 09:30:45;;;;;;;21.50;10.25;;;9.80;99.90;;;;;;5003366;28;20056;-38
2023/01/06 09:33:11;;;;;;;8.68;4.13;;;10.10;99.90;;;;;;5002544;28;20117;-38
2023/01/06 09:35:37;;;;;;;21.10;9.55;;;10.40;99.90;;;;;;5016222;28;20129;-38
2023/01/06 09:38:03;;;;;;;9.63;2.90;;;10.60;99.90;;;;;;5004993;28;20042;-38
2023/01/06 09:40:39;;;;;;;6.38;2.47;;;10.90;99.90;;;;;;5000407;28;20050;-38
2023/01/06 09:43:11;;;;;;;8.02;3.58;;;11.10;99.90;;;;;;5014028;28;20129;-38
2023/01/06 09:45:53;;;;;;;16.98;9.30;;;11.60;99.90;;;;;;5020946;28;20034;-38
2023/01/06 09:48:25;;;;;;;5.28;1.52;;;12.10;99.90;;;;;;5003625;28;20034;-38
2023/01/06 09:50:55;;;;;;;6.57;1.80;;;12.40;99.90;;;;;;5005391;28;20193;-38
2023/01/06 09:53:43;;;;;;;5.75;1.85;;;12.80;99.90;;;;;;5003054;28;20700;-39
2023/01/06 09:56:16;;;;;;;7.32;1.80;;;13.10;99.90;;;;;;5002501;28;20555;-38
2023/01/06 09:58:57;;;;;;;6.43;2.15;;;13.30;99.90;;;;;;5003637;28;20049;-39
2023/01/06 10:01:36;;;;;;;5.72;2.53;;;13.40;99.90;;;;;;5007897;28;20034;-38
2023/01/06 10:04:02;;;;;;;6.22;2.28;;;13.50;99.90;;;;;;5005464;28;20045;-38
2023/01/06 10:06:38;;;;;;;8.63;2.90;;;13.70;99.90;;;;;;5007116;28;20034;-38
2023/01/06 10:09:21;;;;;;;8.52;4.20;;;13.90;99.90;;;;;;5024645;28;20042;-38
2023/01/06 10:11:49;;;;;;;5.47;2.30;;;13.90;99.90;;;;;;5003994;28;20069;-39
2023/01/06 10:14:38;;;;;;;6.90;2.17;;;14.10;99.90;;;;;;5006177;28;20561;-38
2023/01/06 10:17:42;;;;;;;6.03;1.80;;;14.20;99.90;;;;;;5020988;28;20038;-38
2023/01/06 10:20:36;;;;;;;5.63;1.50;;;14.20;99.90;;;;;;5018758;28;20038;-39
2023/01/06 10:23:30;;;;;;;6.78;1.48;;;13.70;99.90;;;;;;5020931;28;20443;-38
2023/01/06 10:26:13;;;;;;;6.50;2.45;;;13.30;99.90;;;;;;5004620;28;20057;-38
2023/01/06 10:28:44;;;;;;;7.22;1.52;;;12.80;99.90;;;;;;5013810;28;20038;-39
2023/01/06 10:31:14;;;;;;;8.98;1.73;;;12.50;99.90;;;;;;5013376;28;20065;-38
2023/01/06 10:33:48;;;;;;;5.32;2.67;;;12.30;99.90;;;;;;5002143;28;20039;-38
2023/01/06 10:36:17;;;;;;;6.35;1.27;;;12.10;99.90;;;;;;5010953;28;20120;-39
2023/01/06 10:38:54;;;;;;;10.20;3.85;;;11.90;99.90;;;;;;5014827;28;20479;-39
2023/01/06 10:45:01;;;;;;;9.13;3.53;;;11.90;99.90;;;;;;4989326;28;20041;-38
2023/01/06 10:47:29;;;;;;;6.90;1.83;;;11.70;99.90;;;;;;4975192;28;20042;-38
2023/01/06 10:49:56;;;;;;;12.57;7.43;;;11.60;99.90;;;;;;4996048;28;20048;-38
2023/01/06 10:52:23;;;;;;;8.13;1.80;;;11.40;99.90;;;;;;5008444;28;20045;-38
2023/01/06 10:54:56;;;;;;;11.32;4.82;;;11.50;99.90;;;;;;5024860;28;20076;-38
2023/01/06 10:57:28;;;;;;;9.77;2.45;;;11.80;99.90;;;;;;5010163;28;20041;-38
2023/01/06 11:00:17;;;;;;;5.68;2.03;;;12.20;99.90;;;;;;5017424;28;20045;-38
2023/01/06 11:02:46;;;;;;;10.13;3.60;;;12.70;99.90;;;;;;5023606;28;20026;-38
2023/01/06 11:05:14;;;;;;;7.13;1.75;;;12.90;99.90;;;;;;5011240;28;20034;-38
2023/01/06 11:07:56;;;;;;;5.20;3.10;;;13.10;99.90;;;;;;5009774;28;20510;-38
2023/01/06 11:10:26;;;;;;;8.63;1.48;;;13.00;99.90;;;;;;5011436;28;20037;-38
2023/01/06 11:12:53;;;;;;;8.38;1.90;;;13.20;99.90;;;;;;5007954;28;20045;-38
2023/01/06 11:15:21;;;;;;;8.10;3.03;;;13.10;99.90;;;;;;5016081;28;20077;-39
2023/01/06 11:17:47;;;;;;;8.02;2.33;;;13.50;99.90;;;;;;5006857;28;20045;-39
2023/01/06 11:20:13;;;;;;;7.40;1.48;;;14.10;99.90;;;;;;5011403;28;20037;-39
2023/01/06 11:22:41;;;;;;;8.90;2.40;;;14.80;99.90;;;;;;5027681;28;20042;-39
2023/01/06 11:25:19;;;;;;;5.22;1.90;;;14.90;99.90;;;;;;5015833;28;20037;-39
2023/01/06 11:28:08;;;;;;;5.72;1.80;;;14.70;99.90;;;;;;5014214;28;20037;-39
2023/01/06 11:30:41;;;;;;;3.97;2.05;;;14.60;99.90;;;;;;5013018;28;20510;-39
2023/01/06 11:33:22;;;;;;;7.22;2.10;;;14.00;99.90;;;;;;5012340;28;20050;-39
2023/01/06 11:35:49;;;;;;;7.50;2.17;;;13.80;99.90;;;;;;5021251;28;20047;-39
2023/01/06 11:38:18;;;;;;;8.65;2.45;;;13.70;99.90;;;;;;5018745;28;20030;-39
2023/01/06 11:40:46;;;;;;;6.22;1.98;;;13.70;99.90;;;;;;5019583;28;20045;-39
2023/01/06 11:43:16;;;;;;;6.20;1.70;;;13.80;99.90;;;;;;5012855;28;20109;-40
2023/01/06 11:46:04;;;;;;;9.98;2.53;;;13.70;99.90;;;;;;5010780;28;20436;-39
2023/01/06 11:48:37;;;;;;;4.35;1.50;;;13.70;99.90;;;;;;5020618;28;20065;-39
2023/01/06 11:51:07;;;;;;;10.00;2.53;;;13.60;99.90;;;;;;5033648;28;20044;-39
2023/01/06 11:53:34;;;;;;;6.53;1.90;;;13.50;99.90;;;;;;5006736;28;20038;-39
2023/01/06 11:56:01;;;;;;;5.95;1.15;;;13.60;99.90;;;;;;5020337;28;20033;-39
2023/01/06 11:58:45;;;;;;;6.72;1.60;;;13.60;99.90;;;;;;5012238;28;20519;-39
2023/01/06 12:01:19;;;;;;;4.10;1.02;;;13.50;99.90;;;;;;5024763;28;20424;-39
2023/01/06 12:03:49;;;;;;;6.55;1.35;;;13.70;99.90;;;;;;5012389;28;20049;-39
2023/01/06 12:06:36;;;;;;;4.40;1.90;;;14.00;99.90;;;;;;5012642;28;20041;-39
2023/01/06 12:09:26;;;;;;;8.82;1.33;;;14.60;99.90;;;;;;5008191;28;20049;-39
2023/01/06 12:11:54;;;;;;;6.43;1.40;;;14.80;99.90;;;;;;5028104;28;20111;-39
2023/01/06 12:14:23;;;;;;;3.88;1.05;;;14.60;99.90;;;;;;5012921;28;20175;-39
2023/01/06 12:17:22;;;;;;;5.88;1.25;;;14.50;99.90;;;;;;5006171;28;20125;-39
2023/01/06 12:20:10;;;;;;;3.85;1.20;;;14.00;99.90;;;;;;5021101;28;20044;-39
2023/01/06 12:22:36;;;;;;;4.57;1.70;;;13.50;99.90;;;;;;5019254;28;20034;-38
2023/01/06 12:25:04;;;;;;;5.72;1.33;;;13.00;99.90;;;;;;5014285;28;20036;-39
2023/01/06 12:27:40;;;;;;;5.60;1.30;;;12.60;99.90;;;;;;5015037;28;20079;-39
2023/01/06 12:30:16;;;;;;;4.53;1.35;;;12.40;99.90;;;;;;5015921;28;20034;-39
2023/01/06 12:32:45;;;;;;;4.25;1.27;;;12.00;99.90;;;;;;5013671;28;20042;-39
2023/01/06 12:35:17;;;;;;;6.72;1.42;;;11.80;99.90;;;;;;5013953;28;20034;-39
2023/01/06 12:38:12;;;;;;;4.20;1.30;;;11.70;99.90;;;;;;5012046;28;20065;-39
2023/01/06 12:40:51;;;;;;;10.25;2.13;;;11.70;99.90;;;;;;5007691;28;20393;-39
2023/01/06 12:43:18;;;;;;;9.25;1.88;;;11.50;99.90;;;;;;5012946;28;20053;-38
2023/01/06 12:45:44;;;;;;;4.13;1.10;;;11.40;99.90;;;;;;5012218;28;20103;-38
2023/01/06 12:48:21;;;;;;;4.50;1.30;;;11.50;99.90;;;;;;5005397;28;20125;-38
2023/01/06 12:51:05;;;;;;;4.53;1.35;;;11.50;99.90;;;;;;5003060;28;20041;-38
2023/01/06 12:53:37;;;;;;;5.03;1.27;;;11.70;99.90;;;;;;5006767;28;20120;-38
2023/01/06 12:56:18;;;;;;;7.97;1.42;;;12.10;99.90;;;;;;5009526;28;20031;-39
2023/01/06 12:58:58;;;;;;;6.35;1.52;;;12.40;99.90;;;;;;5016120;28;20038;-39
2023/01/06 13:01:41;;;;;;;5.78;1.90;;;12.60;99.90;;;;;;5014069;28;20030;-39
2023/01/06 13:04:44;;;;;;;6.38;1.55;;;12.60;99.90;;;;;;5022554;28;20045;-39